NEW MELONES RESERVOIR (NML)

Elevation: 1135' · STANISLAUS R basin · Operator: US Bureau of Reclamation

Provisional data, subject to change.
Query executed Monday at 11:05:52   clock

Select a sensor type for a plot of data.
Note: Reservoir Flows are daily averages.

Earlier

Date RES ELE    STORAGE    RES CHG    TOC STO    ABV TOC    OUTFLOW    INFLOW    EVAP    FNF    RIV REL    PPT INC    SPILL    DIS PWR   
 FEET   AF   AF   AF   AF   CFS   CFS   CFS   CFS   CFS   INCHES   CFS   CFS  
03/29/2015 869.63 558123 -3305 2026250 -- 1889 259 36 459 0 0.00 0 1889
03/30/2015 869.08 555376 -2747 2032500 -- 1629 281 37 515 0 0.00 0 1629
03/31/2015 868.70 553486 -1890 2038750 -- 1107 196 42 434 0 0.00 0 1107
04/01/2015 868.17 550853 -2633 2045000 -1494147 1495 205 37 392 0 0.00 0 1495
04/02/2015 867.79 548970 -1883 2051250 -1502280 1116 197 30 364 0 0.00 0 1116
04/03/2015 867.52 547636 -1334 2057500 -1509864 893 258 38 397 0 0.00 0 893
04/04/2015 867.27 546401 -1235 2063750 -1517349 811 223 35 358 0 0.00 0 811
04/05/2015 866.99 545018 -1383 2070000 -1524982 901 242 38 382 0 0.00 0 901
04/06/2015 866.67 543446 -1572 2076250 -1532804 1014 235 14 368 0 0.04 0 1014
04/07/2015 866.40 542119 -1327 2082500 -1540381 1075 433 27 582 0 0.01 0 1075
04/08/2015 865.96 539959 -2160 2088750 -1548791 1349 260 0 421 0 1.33 0 1349
04/09/2015 865.70 538688 -1271 2095000 -1556312 916 310 35 451 0 0.00 0 916
04/10/2015 865.60 538200 -488 2101250 -1563050 569 358 35 518 0 0.00 0 569
04/11/2015 865.19 536196 -2004 2107500 -1571304 1283 328 55 509 0 0.00 0 1283
04/12/2015 864.73 533956 -- 2113750 -1579794 1385 281 25 476 0 0.00 0 1385
04/13/2015 864.05 530653 -3303 2120000 -1589347 1947 331 49 529 0 0.00 0 1947
04/14/2015 863.46 527801 -2852 2126250 -1598449 1638 242 42 451 0 0.00 0 1638
04/15/2015 862.57 523512 -4289 2132500 -1608988 2376 256 42 433 0 0.00 0 2376
04/16/2015 861.71 519388 -4124 2138750 -1619362 2325 288 42 444 0 0.00 0 2325
04/17/2015 860.87 515379 -4009 2145000 -1629621 2259 298 60 456 0 0.00 0 2259
04/18/2015 860.22 512291 -3088 2151250 -1638959 1761 247 43 418 0 0.00 0 1761
04/19/2015 859.64 509545 -2746 2157500 -1647955 1549 214 49 418 0 0.00 0 1549
04/20/2015 858.93 506193 -3352 2163750 -1657557 1945 307 52 511 0 0.00 0 1945
04/21/2015 858.29 503187 -3006 2170000 -1666813 1785 301 32 517 0 0.00 0 1785
04/22/2015 857.84 501078 -2109 2176250 -1675172 1252 225 36 435 0 0.00 0 1252
04/23/2015 857.51 499537 -1541 2182500 -1682963 969 224 32 424 0 0.00 0 969
04/24/2015 857.25 498323 -1214 2188750 -1690427 763 189 38 414 0 0.00 0 763
04/25/2015 857.02 497248 -1075 2195000 -1697752 974 458 26 778 0 0.97 0 974
04/26/2015 856.76 496040 -1208 2201250 -1705210 815 232 26 505 0 0.98 0 815
04/27/2015 -- -- -- -- -- -- -- -- -- -- -- -- --

Later | Latest

Warning! This data is preliminary and subject to revision.

Show NML Map | Plot NML Data | 1 Month NML Data | Real-Time NML Data | NML Info